Time;durP1;ratioP1;P1;durP2;ratioP2;P2;SDS_P1;SDS_P2;PMS_P1;PMS_P2;Temp;Humidity;BMP_temperature;BMP_pressure;BME280_temperature;BME280_humidity;BME280_pressure;Samples;Min_cycle;Max_cycle;Signal;HPM_P1;HPM_P2
2020/12/21 00:01:16;;;;;;;;;;;;;;;4.41;100.00;99685.00;5093511;28;19970;-73
2020/12/21 00:03:43;;;;;;;;;;;;;;;4.46;100.00;99695.75;5093582;28;19924;-73
2020/12/21 00:06:16;;;;;;;;;;;;;;;4.50;100.00;99690.31;5093159;28;19924;-73
2020/12/21 00:08:42;;;;;;;;;;;;;;;4.57;100.00;99687.66;5075786;28;19970;-73
2020/12/21 00:11:09;;;;;;;;;;;;;;;4.48;100.00;99685.13;5075719;28;19924;-73
2020/12/21 00:13:42;;;;;;;;;;;;;;;4.52;100.00;99685.19;5093657;28;19924;-73
2020/12/21 00:16:12;;;;;;;;;;;;;;;4.59;100.00;99677.81;5093403;28;19927;-73
2020/12/21 00:18:39;;;;;;;;;;;;;;;4.55;100.00;99673.38;5075663;28;19930;-74
2020/12/21 00:21:05;;;;;;;;;;;;;;;4.57;100.00;99685.69;5075224;28;19924;-74
2020/12/21 00:23:32;;;;;;;;;;;;;;;4.53;100.00;99687.56;5075283;28;19970;-73
2020/12/21 00:26:07;;;;;;;;;;;;;;;4.56;100.00;99677.75;5093507;28;19931;-74
2020/12/21 00:28:33;;;;;;;;;;;;;;;4.64;100.00;99671.97;5093177;28;19938;-73
2020/12/21 00:31:00;;;;;;;;;;;;;;;4.70;100.00;99672.44;5093569;28;20454;-73
2020/12/21 00:33:32;;;;;;;;;;;;;;;4.70;100.00;99662.19;5074807;28;20248;-73
2020/12/21 00:35:58;;;;;;;;;;;;;;;4.74;100.00;99665.00;5093516;28;19935;-74
2020/12/21 00:38:25;;;;;;;;;;;;;;;4.77;100.00;99648.44;5093211;28;19928;-74
2020/12/21 00:40:52;;;;;;;;;;;;;;;4.82;100.00;99644.56;5092921;28;19932;-74
2020/12/21 00:43:19;;;;;;;;;;;;;;;4.81;100.00;99649.31;5092782;28;19931;-74
2020/12/21 00:45:45;;;;;;;;;;;;;;;4.74;100.00;99642.88;5075012;28;19978;-74
2020/12/21 00:48:12;;;;;;;;;;;;;;;4.77;100.00;99639.34;5061712;28;19938;-73
2020/12/21 00:50:39;;;;;;;;;;;;;;;4.86;100.00;99646.22;5096976;28;19924;-73
2020/12/21 00:53:05;;;;;;;;;;;;;;;4.89;100.00;99642.69;5078966;28;19924;-73
2020/12/21 00:55:31;;;;;;;;;;;;;;;4.87;100.00;99633.19;5078645;28;20383;-74
2020/12/21 00:57:58;;;;;;;;;;;;;;;4.87;100.00;99639.53;5096702;28;19928;-73
2020/12/21 01:00:24;;;;;;;;;;;;;;;4.75;100.00;99623.13;5078290;28;19932;-73
2020/12/21 01:02:51;;;;;;;;;;;;;;;4.66;100.00;99616.22;5096137;28;20351;-73
2020/12/21 01:05:18;;;;;;;;;;;;;;;4.63;100.00;99614.22;5078461;28;19932;-73
2020/12/21 01:07:44;;;;;;;;;;;;;;;4.68;100.00;99600.84;5096293;28;19963;-73
2020/12/21 01:10:11;;;;;;;;;;;;;;;4.74;100.00;99593.81;5096190;28;19932;-73
2020/12/21 01:12:38;;;;;;;;;;;;;;;4.69;100.00;99585.84;5095769;28;19928;-73
2020/12/21 01:15:04;;;;;;;;;;;;;;;4.70;100.00;99592.16;5095937;28;19924;-73
2020/12/21 01:17:31;;;;;;;;;;;;;;;4.72;100.00;99587.88;5095700;28;19931;-72
2020/12/21 01:19:59;;;;;;;;;;;;;;;4.78;100.00;99583.63;5077934;28;19963;-73
2020/12/21 01:22:25;;;;;;;;;;;;;;;4.79;100.00;99587.97;5096194;28;20046;-73
2020/12/21 01:24:52;;;;;;;;;;;;;;;4.72;100.00;99590.66;5076976;28;20485;-73
2020/12/21 01:27:18;;;;;;;;;;;;;;;4.69;100.00;99580.31;5095706;28;19928;-73
2020/12/21 01:29:45;;;;;;;;;;;;;;;4.71;100.00;99597.31;5096397;28;19986;-73
2020/12/21 01:32:12;;;;;;;;;;;;;;;4.67;100.00;99590.94;5095570;28;19930;-73
2020/12/21 01:34:38;;;;;;;;;;;;;;;4.74;100.00;99585.50;5078297;28;19932;-73
2020/12/21 01:37:06;;;;;;;;;;;;;;;4.88;100.00;99585.72;5095818;28;19924;-73
2020/12/21 01:39:32;;;;;;;;;;;;;;;4.98;100.00;99596.16;5096172;28;19947;-74
2020/12/21 01:41:59;;;;;;;;;;;;;;;5.01;100.00;99584.31;5077918;28;19924;-73
2020/12/21 01:44:25;;;;;;;;;;;;;;;5.11;100.00;99586.47;5095367;28;19927;-73
2020/12/21 01:46:52;;;;;;;;;;;;;;;5.04;100.00;99583.59;5092734;28;20390;-73
2020/12/21 01:49:20;;;;;;;;;;;;;;;5.11;100.00;99589.25;5095776;28;19928;-73
2020/12/21 01:51:46;;;;;;;;;;;;;;;5.18;100.00;99574.69;5076686;28;20291;-73
2020/12/21 01:54:13;;;;;;;;;;;;;;;5.16;100.00;99572.31;5095524;28;20271;-73
2020/12/21 01:56:40;;;;;;;;;;;;;;;5.15;100.00;99570.69;5077509;28;19924;-73
2020/12/21 01:59:06;;;;;;;;;;;;;;;5.21;100.00;99558.09;5076932;28;19927;-73
2020/12/21 02:01:33;;;;;;;;;;;;;;;5.23;100.00;99558.53;5109501;28;20367;-73
2020/12/21 02:04:00;;;;;;;;;;;;;;;5.25;100.00;99552.63;5077868;28;19977;-73
2020/12/21 02:06:26;;;;;;;;;;;;;;;5.16;100.00;99541.81;5095344;28;19928;-73
2020/12/21 02:08:53;;;;;;;;;;;;;;;5.19;100.00;99535.53;5077178;28;19924;-74
2020/12/21 02:11:19;;;;;;;;;;;;;;;5.20;100.00;99528.81;5077386;28;19924;-74
2020/12/21 02:13:46;;;;;;;;;;;;;;;5.29;100.00;99532.09;5095234;28;19931;-73
2020/12/21 02:16:15;;;;;;;;;;;;;;;5.26;100.00;99519.00;5094799;28;19963;-74
2020/12/21 02:18:41;;;;;;;;;;;;;;;5.33;100.00;99516.28;5095184;28;20440;-73
2020/12/21 02:21:08;;;;;;;;;;;;;;;5.37;100.00;99497.75;5056013;28;19974;-73
2020/12/21 02:23:34;;;;;;;;;;;;;;;5.38;100.00;99485.47;5073084;28;19924;-74
2020/12/21 02:26:01;;;;;;;;;;;;;;;5.40;100.00;99477.59;5074944;28;19929;-73
2020/12/21 02:28:27;;;;;;;;;;;;;;;5.40;100.00;99460.16;5070321;28;19928;-73
2020/12/21 02:30:54;;;;;;;;;;;;;;;5.38;100.00;99454.19;5073263;28;19925;-73
2020/12/21 02:33:20;;;;;;;;;;;;;;;5.41;100.00;99437.63;5073246;28;19925;-74
2020/12/21 02:35:47;;;;;;;;;;;;;;;5.45;100.00;99424.56;5073153;28;19939;-73
2020/12/21 02:38:13;;;;;;;;;;;;;;;5.54;100.00;99411.19;5071785;28;19967;-73
2020/12/21 02:40:41;;;;;;;;;;;;;;;5.51;100.00;99389.00;5071945;28;20291;-73
2020/12/21 02:43:17;;;;;;;;;;;;;;;5.54;100.00;99382.72;5071349;28;19932;-73
2020/12/21 02:45:43;;;;;;;;;;;;;;;5.56;100.00;99375.59;5074359;28;19956;-73
2020/12/21 02:48:10;;;;;;;;;;;;;;;5.60;100.00;99365.31;5071077;28;19970;-73
2020/12/21 02:50:37;;;;;;;;;;;;;;;5.70;100.00;99351.94;5074584;28;19925;-73
2020/12/21 02:53:03;;;;;;;;;;;;;;;5.71;100.00;99340.44;5060229;28;19925;-73
2020/12/21 02:55:30;;;;;;;;;;;;;;;5.65;100.00;99316.25;5054615;28;19925;-73
2020/12/21 02:57:57;;;;;;;;;;;;;;;5.66;100.00;99309.53;5067414;28;19925;-73
2020/12/21 03:00:23;;;;;;;;;;;;;;;5.74;100.00;99287.00;5071313;28;19925;-73
2020/12/21 03:02:50;;;;;;;;;;;;;;;5.79;100.00;99283.06;5036990;28;19925;-73
2020/12/21 03:05:16;;;;;;;;;;;;;;;5.75;100.00;99271.16;5053161;28;19924;-73
2020/12/21 03:07:43;;;;;;;;;;;;;;;5.82;100.00;99265.69;5055264;28;19931;-73
2020/12/21 03:10:09;;;;;;;;;;;;;;;5.94;100.00;99265.41;5054058;28;19994;-73
2020/12/21 03:12:36;;;;;;;;;;;;;;;5.92;100.00;99242.78;5055329;28;19964;-73
2020/12/21 03:15:10;;;;;;;;;;;;;;;6.06;100.00;99204.81;5057025;28;19925;-73
2020/12/21 03:17:36;;;;;;;;;;;;;;;5.95;100.00;99186.53;5074264;28;19924;-74
2020/12/21 03:20:03;;;;;;;;;;;;;;;6.17;100.00;99177.09;5056268;28;20334;-74
2020/12/21 03:22:29;;;;;;;;;;;;;;;5.98;100.00;99156.06;5076433;28;20240;-73
2020/12/21 03:24:57;;;;;;;;;;;;;;;5.89;100.00;99132.63;5075287;28;20536;-73
2020/12/21 03:27:25;;;;;;;;;;;;;;;5.78;100.00;99126.22;5093246;28;20010;-73
2020/12/21 03:29:51;;;;;;;;;;;;;;;5.77;100.00;99128.19;5094276;28;19969;-74
2020/12/21 03:32:19;;;;;;;;;;;;;;;5.79;100.00;99120.28;5093877;28;19928;-73
2020/12/21 03:34:45;;;;;;;;;;;;;;;5.76;100.00;99121.06;5092501;28;20011;-73
2020/12/21 03:37:11;;;;;;;;;;;;;;;5.77;100.00;99113.56;5094241;28;19973;-73
2020/12/21 03:39:38;;;;;;;;;;;;;;;5.77;100.00;99113.56;5093852;28;19963;-73
2020/12/21 03:42:04;;;;;;;;;;;;;;;5.58;100.00;99104.38;5093418;28;19931;-73
2020/12/21 03:44:31;;;;;;;;;;;;;;;5.66;100.00;98957.47;5092803;28;20007;-73
2020/12/21 03:46:58;;;;;;;;;;;;;;;5.66;100.00;98951.94;5075266;28;19928;-73
2020/12/21 03:49:24;;;;;;;;;;;;;;;5.77;100.00;98952.75;5093637;28;19964;-73
2020/12/21 03:51:51;;;;;;;;;;;;;;;5.75;100.00;98960.66;5075856;28;20421;-73
2020/12/21 03:54:19;;;;;;;;;;;;;;;5.73;100.00;98960.25;5093556;28;20279;-73
2020/12/21 03:56:45;;;;;;;;;;;;;;;5.71;100.00;98968.97;5084179;28;19966;-73
2020/12/21 03:59:12;;;;;;;;;;;;;;;5.72;100.00;98972.53;5056187;28;19973;-73
2020/12/21 04:01:39;;;;;;;;;;;;;;;5.73;100.00;98960.25;5093499;28;19928;-73
2020/12/21 04:04:06;;;;;;;;;;;;;;;5.65;100.00;98962.22;5093518;28;20023;-73
2020/12/21 04:06:33;;;;;;;;;;;;;;;5.72;100.00;98967.78;5075789;28;20354;-73
2020/12/21 04:08:59;;;;;;;;;;;;;;;5.57;100.00;98964.19;5093247;28;19960;-73
2020/12/21 04:11:26;;;;;;;;;;;;;;;5.63;100.00;98967.38;5092046;28;20268;-73
2020/12/21 04:13:53;;;;;;;;;;;;;;;5.62;100.00;98968.53;5075451;28;20015;-73
2020/12/21 04:16:19;;;;;;;;;;;;;;;5.70;100.00;98977.66;5093469;28;20271;-73
2020/12/21 04:18:46;;;;;;;;;;;;;;;5.79;100.00;98994.72;5075576;28;19974;-73
2020/12/21 04:21:13;;;;;;;;;;;;;;;5.75;100.00;99010.56;5075839;28;20313;-73
2020/12/21 04:23:40;;;;;;;;;;;;;;;5.79;100.00;99011.34;5097975;28;19948;-73
2020/12/21 04:26:07;;;;;;;;;;;;;;;5.79;100.00;99011.34;5096913;28;19924;-73
2020/12/21 04:28:37;;;;;;;;;;;;;;;5.78;100.00;99026.41;5097387;28;20027;-73
2020/12/21 04:31:03;;;;;;;;;;;;;;;5.82;100.00;99027.22;5079400;28;19963;-73
2020/12/21 04:33:30;;;;;;;;;;;;;;;5.92;100.00;99027.28;5079273;28;19924;-73
2020/12/21 04:36:02;;;;;;;;;;;;;;;5.88;100.00;99036.78;5097417;28;20386;-74
2020/12/21 04:38:28;;;;;;;;;;;;;;;5.99;100.00;99054.22;5097000;28;20359;-73
2020/12/21 04:40:56;;;;;;;;;;;;;;;5.96;100.00;99058.56;5097242;28;20260;-73
2020/12/21 04:43:23;;;;;;;;;;;;;;;5.96;100.00;99063.31;5078475;28;20414;-73
2020/12/21 04:45:52;;;;;;;;;;;;;;;5.97;100.00;99078.78;5097417;28;19924;-73
2020/12/21 04:48:20;;;;;;;;;;;;;;;5.98;100.00;99086.72;5078588;28;20043;-73
2020/12/21 04:50:46;;;;;;;;;;;;;;;5.99;100.00;99096.63;5097360;28;20244;-73
2020/12/21 04:53:13;;;;;;;;;;;;;;;6.12;100.00;99113.69;5096397;28;19975;-73
2020/12/21 04:55:40;;;;;;;;;;;;;;;6.12;100.00;99110.94;5096134;28;20397;-73
2020/12/21 04:58:06;;;;;;;;;;;;;;;6.09;100.00;99120.81;5096903;28;20379;-73
2020/12/21 05:00:33;;;;;;;;;;;;;;;6.03;100.00;99122.38;5062283;28;20367;-73
2020/12/21 05:03:00;;;;;;;;;;;;;;;5.77;100.00;99125.41;5096865;28;20378;-73
2020/12/21 05:05:27;;;;;;;;;;;;;;;5.89;100.00;99122.34;5079020;28;19977;-73
2020/12/21 05:07:54;;;;;;;;;;;;;;;5.78;100.00;99131.75;5096717;28;19978;-73
2020/12/21 05:10:21;;;;;;;;;;;;;;;5.81;100.00;99137.34;5096342;28;19930;-73
2020/12/21 05:12:57;;;;;;;;;;;;;;;5.75;100.00;99136.13;5096601;28;20355;-73
2020/12/21 05:15:25;;;;;;;;;;;;;;;5.90;100.00;99139.75;5079237;28;19977;-73
2020/12/21 05:18:01;;;;;;;;;;;;;;;5.76;100.00;99145.22;5078248;28;19962;-73
2020/12/21 05:20:27;;;;;;;;;;;;;;;5.79;100.00;99144.44;5078807;28;20651;-73
2020/12/21 05:22:54;;;;;;;;;;;;;;;5.62;100.00;99145.16;5096591;28;19924;-73
2020/12/21 05:25:20;;;;;;;;;;;;;;;5.63;100.00;99152.28;5078310;28;19950;-73
2020/12/21 05:27:47;;;;;;;;;;;;;;;5.50;100.00;99151.81;5096300;28;20022;-73
2020/12/21 05:30:13;;;;;;;;;;;;;;;5.47;100.00;99333.53;5096500;28;19924;-74
2020/12/21 05:32:39;;;;;;;;;;;;;;;5.63;100.00;99359.00;5095215;28;20015;-73
2020/12/21 05:35:07;;;;;;;;;;;;;;;5.65;100.00;99363.41;5096361;28;19924;-73
2020/12/21 05:37:35;;;;;;;;;;;;;;;5.52;100.00;99358.16;5078173;28;19924;-72
2020/12/21 05:40:03;;;;;;;;;;;;;;;5.49;100.00;99358.91;5075987;28;20386;-72
2020/12/21 05:42:29;;;;;;;;;;;;;;;5.38;100.00;99358.00;5083436;28;19971;-72
2020/12/21 05:44:56;;;;;;;;;;;;;;;5.28;100.00;99349.59;5094406;28;19925;-72
2020/12/21 05:47:23;;;;;;;;;;;;;;;5.29;100.00;99356.72;5077907;28;19959;-74
2020/12/21 05:49:54;;;;;;;;;;;;;;;5.29;100.00;99360.31;5095961;28;19924;-72
2020/12/21 05:52:39;;;;;;;;;;;;;;;5.32;100.00;99358.72;5077712;28;19932;-72
2020/12/21 05:55:05;;;;;;;;;;;;;;;5.24;100.00;99363.41;5096210;28;19924;-72
2020/12/21 05:57:32;;;;;;;;;;;;;;;5.37;100.00;99369.47;5077573;28;19948;-72
2020/12/21 05:59:59;;;;;;;;;;;;;;;5.47;100.00;99377.88;5044585;28;20363;-72
2020/12/21 06:02:30;;;;;;;;;;;;;;;5.47;100.00;99377.06;5077531;28;19928;-72
2020/12/21 06:05:00;;;;;;;;;;;;;;;5.53;100.00;99387.44;5077722;28;19931;-72
2020/12/21 06:07:28;;;;;;;;;;;;;;;5.55;100.00;99390.63;5095491;28;19924;-72
2020/12/21 06:09:56;;;;;;;;;;;;;;;5.44;100.00;99381.41;5077518;28;19924;-72
2020/12/21 06:12:23;;;;;;;;;;;;;;;5.46;100.00;99372.72;5095669;28;19924;-72
2020/12/21 06:14:51;;;;;;;;;;;;;;;5.69;100.00;99383.63;5077233;28;19924;-72
2020/12/21 06:17:18;;;;;;;;;;;;;;;5.78;100.00;99389.63;5095280;28;19939;-72
2020/12/21 06:19:45;;;;;;;;;;;;;;;5.76;100.00;99392.78;5077272;28;20007;-72
2020/12/21 06:22:11;;;;;;;;;;;;;;;5.70;100.00;99385.19;5095001;28;19924;-72
2020/12/21 06:24:38;;;;;;;;;;;;;;;5.63;100.00;99378.41;5095263;28;19924;-73
2020/12/21 06:27:14;;;;;;;;;;;;;;;5.70;100.00;99379.66;5077050;28;19931;-72
2020/12/21 06:29:40;;;;;;;;;;;;;;;5.59;100.00;99374.81;5095489;28;19977;-72
2020/12/21 06:32:08;;;;;;;;;;;;;;;5.48;100.00;99351.75;5094882;28;19966;-72
2020/12/21 06:34:36;;;;;;;;;;;;;;;5.41;100.00;99346.16;5076996;28;19924;-72
2020/12/21 06:37:11;;;;;;;;;;;;;;;5.57;100.00;99349.44;5094817;28;19928;-72
2020/12/21 06:39:38;;;;;;;;;;;;;;;5.74;100.00;99341.69;5094641;28;20283;-72
2020/12/21 06:42:05;;;;;;;;;;;;;;;5.77;100.00;99340.91;5094965;28;19931;-72
2020/12/21 06:44:32;;;;;;;;;;;;;;;6.00;100.00;99358.94;5075912;28;20002;-72
2020/12/21 06:46:59;;;;;;;;;;;;;;;6.14;100.00;99361.00;5059867;28;19960;-72
2020/12/21 06:49:26;;;;;;;;;;;;;;;6.20;100.00;99359.44;5094597;28;19966;-72
2020/12/21 06:51:53;;;;;;;;;;;;;;;6.05;100.00;99364.13;5094333;28;19969;-72
2020/12/21 06:54:20;;;;;;;;;;;;;;;5.89;100.00;99343.41;5094168;28;20397;-72
2020/12/21 06:56:48;;;;;;;;;;;;;;;5.87;100.00;99335.47;5094511;28;20001;-71
2020/12/21 06:59:16;;;;;;;;;;;;;;;5.98;100.00;99330.78;5082653;28;19924;-72
2020/12/21 07:01:44;;;;;;;;;;;;;;;6.15;100.00;99329.31;5082081;28;19963;-72
2020/12/21 07:04:14;;;;;;;;;;;;;;;6.12;100.00;99319.75;5085075;28;19924;-71
2020/12/21 07:06:41;;;;;;;;;;;;;;;6.12;100.00;99319.00;5083299;28;20020;-72
2020/12/21 07:09:09;;;;;;;;;;;;;;;6.24;100.00;99324.22;5070666;28;20358;-72
2020/12/21 07:11:51;;;;;;;;;;;;;;;6.30;100.00;99330.97;5087385;28;20278;-71
2020/12/21 07:14:18;;;;;;;;;;;;;;;6.13;100.00;99315.03;5089126;28;19924;-72
2020/12/21 07:16:45;;;;;;;;;;;;;;;6.10;100.00;99299.16;5090841;28;19924;-72
2020/12/21 07:19:11;;;;;;;;;;;;;;;6.13;100.00;99304.72;5089405;28;19924;-72
2020/12/21 07:21:39;;;;;;;;;;;;;;;6.15;100.00;99290.47;5089533;28;20264;-72
2020/12/21 07:24:10;;;;;;;;;;;;;;;6.16;100.00;99292.06;5067517;28;20139;-72
2020/12/21 07:26:39;;;;;;;;;;;;;;;6.15;100.00;99293.25;5089232;28;19924;-72
2020/12/21 07:29:06;;;;;;;;;;;;;;;6.15;100.00;99279.38;5089024;28;19930;-72
2020/12/21 07:31:33;;;;;;;;;;;;;;;6.25;100.00;99270.28;5087340;28;19924;-72
2020/12/21 07:34:00;;;;;;;;;;;;;;;6.28;100.00;99266.72;5089422;28;19939;-72
2020/12/21 07:36:27;;;;;;;;;;;;;;;6.31;100.00;99255.66;5073040;28;20523;-72
2020/12/21 07:39:04;;;;;;;;;;;;;;;6.20;100.00;99256.78;5093163;28;19957;-72
2020/12/21 07:41:32;;;;;;;;;;;;;;;6.28;100.00;99250.88;5093789;28;20285;-72
2020/12/21 07:44:01;;;;;;;;;;;;;;;6.27;100.00;99251.28;5093825;28;19978;-73
2020/12/21 07:46:33;;;;;;;;;;;;;;;6.22;100.00;99246.91;5093485;28;19971;-72
2020/12/21 07:49:00;;;;;;;;;;;;;;;6.20;100.00;99238.16;5059456;28;20023;-72
2020/12/21 07:51:26;;;;;;;;;;;;;;;6.08;100.00;99237.69;5094438;28;19932;-72
2020/12/21 07:53:53;;;;;;;;;;;;;;;6.09;100.00;99233.78;5092664;28;19933;-73
2020/12/21 07:56:33;;;;;;;;;;;;;;;6.18;100.00;99234.19;5092756;28;20284;-73
2020/12/21 07:59:16;;;;;;;;;;;;;;;6.11;100.00;99231.38;5073422;28;20119;-72
2020/12/21 08:01:44;;;;;;;;;;;;;;;6.23;100.00;99231.03;5075844;28;20014;-73
2020/12/21 08:04:15;;;;;;;;;;;;;;;6.23;100.00;99220.72;5074306;28;19924;-73
2020/12/21 08:06:42;;;;;;;;;;;;;;;6.02;100.00;99214.31;5093624;28;19977;-73
2020/12/21 08:09:09;;;;;;;;;;;;;;;6.01;100.00;99213.53;5092870;28;19931;-73
2020/12/21 08:11:36;;;;;;;;;;;;;;;5.93;100.00;99216.63;5093657;28;19932;-73
2020/12/21 08:14:03;;;;;;;;;;;;;;;5.97;100.00;99206.38;5074832;28;19960;-73
2020/12/21 08:16:31;;;;;;;;;;;;;;;5.98;100.00;99205.97;5093650;28;19977;-73
2020/12/21 08:18:57;;;;;;;;;;;;;;;6.02;100.00;99215.09;5071936;28;20015;-73
2020/12/21 08:21:24;;;;;;;;;;;;;;;6.03;100.00;99210.38;5093094;28;19928;-73
2020/12/21 08:23:55;;;;;;;;;;;;;;;5.97;100.00;99211.91;5074276;28;19970;-73
2020/12/21 08:26:24;;;;;;;;;;;;;;;5.95;100.00;99226.19;5075161;28;19931;-74
2020/12/21 08:28:51;;;;;;;;;;;;;;;6.02;100.00;99214.31;5092042;28;20031;-74
2020/12/21 08:31:18;;;;;;;;;;;;;;;5.92;100.00;99215.84;5092851;28;20327;-73
2020/12/21 08:33:57;;;;;;;;;;;;;;;5.91;100.00;99205.16;5091931;28;20383;-73
2020/12/21 08:36:25;;;;;;;;;;;;;;;5.93;100.00;99214.66;5092657;28;20417;-73
2020/12/21 08:38:52;;;;;;;;;;;;;;;5.89;100.00;99216.63;5092160;28;20011;-73
2020/12/21 08:41:19;;;;;;;;;;;;;;;5.96;100.00;99227.75;5092864;28;19924;-73
2020/12/21 08:43:46;;;;;;;;;;;;;;;5.87;100.00;99226.50;5092965;28;19924;-73
2020/12/21 08:46:13;;;;;;;;;;;;;;;5.79;100.00;99227.63;5092317;28;20000;-73
2020/12/21 08:48:40;;;;;;;;;;;;;;;5.86;100.00;99227.72;5088586;28;20019;-73
2020/12/21 08:51:07;;;;;;;;;;;;;;;5.78;100.00;99229.63;5092663;28;19924;-73
2020/12/21 08:53:43;;;;;;;;;;;;;;;5.73;100.00;99240.25;5088941;28;19928;-73
2020/12/21 08:56:11;;;;;;;;;;;;;;;5.75;100.00;99227.63;5084164;28;19942;-73
2020/12/21 08:58:37;;;;;;;;;;;;;;;5.86;100.00;99230.47;5074364;28;20386;-73
2020/12/21 09:01:07;;;;;;;;;;;;;;;5.76;100.00;99225.63;5091483;28;20329;-73
2020/12/21 09:03:34;;;;;;;;;;;;;;;5.69;100.00;99217.28;5092930;28;19928;-73
2020/12/21 09:06:01;;;;;;;;;;;;;;;5.69;100.00;99215.31;5092550;28;19930;-73
2020/12/21 09:08:28;;;;;;;;;;;;;;;5.63;100.00;99220.41;5094901;28;19935;-72
2020/12/21 09:10:55;;;;;;;;;;;;;;;5.63;100.00;99213.28;5096056;28;19924;-73
2020/12/21 09:13:21;;;;;;;;;;;;;;;5.77;100.00;99197.50;5060818;28;19927;-72
2020/12/21 09:15:48;;;;;;;;;;;;;;;5.67;100.00;99186.34;5096221;28;19931;-72
2020/12/21 09:18:15;;;;;;;;;;;;;;;5.70;100.00;99191.13;5066320;28;20276;-73
2020/12/21 09:20:42;;;;;;;;;;;;;;;5.75;100.00;99176.91;5109910;28;19934;-72
2020/12/21 09:23:09;;;;;;;;;;;;;;;5.78;100.00;99178.91;5097593;28;20014;-72
2020/12/21 09:25:36;;;;;;;;;;;;;;;5.69;100.00;99159.06;5093995;28;19928;-72
2020/12/21 09:28:02;;;;;;;;;;;;;;;5.78;100.00;99165.03;5061034;28;19928;-73
2020/12/21 09:30:30;;;;;;;;;;;;;;;5.70;100.00;99163.41;5076477;28;19962;-71
2020/12/21 09:32:56;;;;;;;;;;;;;;;5.75;100.00;99176.91;5091543;28;19923;-70
2020/12/21 09:35:23;;;;;;;;;;;;;;;5.77;100.00;99180.88;5090942;27;19955;-72
2020/12/21 09:37:49;;;;;;;;;;;;;;;5.81;100.00;99173.38;5057872;28;19931;-71
2020/12/21 09:40:25;;;;;;;;;;;;;;;5.81;100.00;99186.44;5073685;28;20019;-71
2020/12/21 09:42:51;;;;;;;;;;;;;;;5.88;100.00;99184.53;5099362;27;20023;-71
2020/12/21 09:45:18;;;;;;;;;;;;;;;5.92;100.00;99195.66;5080996;28;19931;-71
2020/12/21 09:47:45;;;;;;;;;;;;;;;5.84;100.00;99180.16;5090744;28;19924;-73
2020/12/21 09:50:12;;;;;;;;;;;;;;;5.84;100.00;99169.84;5090968;28;19924;-73
2020/12/21 09:52:38;;;;;;;;;;;;;;;5.85;100.00;99162.31;5091558;28;19954;-74
2020/12/21 09:55:05;;;;;;;;;;;;;;;5.79;100.00;99192.38;5090920;28;20377;-73
2020/12/21 09:57:32;;;;;;;;;;;;;;;5.83;100.00;99212.63;5073303;28;19924;-74
2020/12/21 09:59:58;;;;;;;;;;;;;;;5.93;100.00;99217.44;5056206;28;20026;-74
2020/12/21 10:02:25;;;;;;;;;;;;;;;5.86;100.00;99236.03;5091644;28;19928;-73
2020/12/21 10:04:51;;;;;;;;;;;;;;;5.80;100.00;99268.03;5113029;27;19925;-73
2020/12/21 10:07:18;;;;;;;;;;;;;;;5.91;100.00;99291.13;5087279;28;20003;-73
2020/12/21 10:09:44;;;;;;;;;;;;;;;5.86;100.00;99324.75;5092857;28;19955;-73
2020/12/21 10:12:11;;;;;;;;;;;;;;;5.87;100.00;99367.94;5093968;28;19932;-73
2020/12/21 10:14:37;;;;;;;;;;;;;;;5.91;100.00;99419.47;5094563;28;19924;-73
2020/12/21 10:17:04;;;;;;;;;;;;;;;5.90;100.00;99473.38;5101346;27;20595;-73
2020/12/21 10:19:31;;;;;;;;;;;;;;;5.89;100.00;99527.25;5088739;28;19975;-73
2020/12/21 10:21:57;;;;;;;;;;;;;;;5.96;100.00;99590.31;5089804;28;19973;-73
2020/12/21 10:24:25;;;;;;;;;;;;;;;5.91;100.00;99623.94;5092753;28;19924;-73
2020/12/21 10:26:54;;;;;;;;;;;;;;;5.93;100.00;99646.53;5059041;28;19935;-73
2020/12/21 10:29:21;;;;;;;;;;;;;;;5.93;100.00;99633.47;5074504;28;20301;-73
2020/12/21 10:31:48;;;;;;;;;;;;;;;5.94;100.00;99648.16;5093180;28;19928;-73
2020/12/21 10:34:14;;;;;;;;;;;;;;;6.06;100.00;99643.13;5090115;28;19981;-74
2020/12/21 10:36:41;;;;;;;;;;;;;;;5.98;100.00;99624.81;5101083;28;20282;-74
2020/12/21 10:39:07;;;;;;;;;;;;;;;6.05;100.00;99610.22;5088045;28;19959;-74
2020/12/21 10:41:35;;;;;;;;;;;;;;;6.19;96.82;99602.84;5089960;28;19924;-74
2020/12/21 10:44:02;;;;;;;;;;;;;;;6.19;94.87;99597.31;5088919;28;19989;-74
2020/12/21 10:46:29;;;;;;;;;;;;;;;6.20;85.22;99582.22;5091078;28;19928;-73
2020/12/21 10:48:55;;;;;;;;;;;;;;;6.20;75.44;99567.56;5090238;28;20010;-74
2020/12/21 10:51:28;;;;;;;;;;;;;;;6.24;71.37;99537.88;5090216;28;20318;-73
2020/12/21 10:53:56;;;;;;;;;;;;;;;6.10;70.88;99498.91;5042003;28;19924;-77
2020/12/21 10:56:23;;;;;;;;;;;;;;;6.14;70.31;99388.75;5084063;28;20486;-75
2020/12/21 10:58:49;;;;;;;;;;;;;;;6.07;69.93;99364.53;5069605;28;19932;-75
2020/12/21 11:01:17;;;;;;;;;;;;;;;6.19;68.61;99341.22;5088177;28;20057;-74
2020/12/21 11:03:44;;;;;;;;;;;;;;;6.23;68.42;99319.81;5089541;28;19932;-75
2020/12/21 11:06:11;;;;;;;;;;;;;;;6.18;68.05;99306.34;5071385;28;20377;-75
2020/12/21 11:08:38;;;;;;;;;;;;;;;6.25;67.45;99306.38;5090305;28;20271;-75
2020/12/21 11:11:05;;;;;;;;;;;;;;;6.32;66.61;99273.88;5089739;28;19924;-75
2020/12/21 11:13:31;;;;;;;;;;;;;;;6.22;66.83;99257.19;5089915;28;20270;-75
2020/12/21 11:15:58;;;;;;;;;;;;;;;6.39;65.88;99245.38;5072209;28;19924;-75
2020/12/21 11:18:24;;;;;;;;;;;;;;;6.42;65.38;99223.16;5088875;28;20310;-75
2020/12/21 11:20:51;;;;;;;;;;;;;;;6.41;65.27;99231.88;5089609;28;20375;-76
2020/12/21 11:23:18;;;;;;;;;;;;;;;6.36;65.13;99221.19;5090505;28;19924;-78
2020/12/21 11:25:46;;;;;;;;;;;;;;;6.42;64.77;99203.72;5037756;28;20347;-75
2020/12/21 11:28:12;;;;;;;;;;;;;;;6.50;64.26;99190.66;5072226;28;20371;-73
2020/12/21 11:30:39;;;;;;;;;;;;;;;6.59;63.77;99188.31;5087568;28;19928;-73
2020/12/21 11:33:06;;;;;;;;;;;;;;;6.72;63.14;99170.09;5092048;28;19925;-73
2020/12/21 11:35:32;;;;;;;;;;;;;;;6.78;62.82;99162.97;5089007;28;19924;-73
2020/12/21 11:37:59;;;;;;;;;;;;;;;6.70;62.90;99133.59;5089555;28;19973;-73
2020/12/21 11:40:25;;;;;;;;;;;;;;;6.78;62.56;99124.88;5089315;28;19928;-74
2020/12/21 11:42:52;;;;;;;;;;;;;;;6.76;62.49;99099.47;5101400;28;19924;-74
2020/12/21 11:45:19;;;;;;;;;;;;;;;6.85;62.16;99096.28;5096726;28;20363;-73
2020/12/21 11:47:46;;;;;;;;;;;;;;;7.03;61.58;99078.41;5076345;28;20376;-75
2020/12/21 11:50:12;;;;;;;;;;;;;;;6.84;62.12;99084.41;5092509;28;20267;-75
2020/12/21 11:52:41;;;;;;;;;;;;;;;6.79;62.23;99059.00;5093029;28;19951;-76
2020/12/21 11:55:07;;;;;;;;;;;;;;;6.81;62.07;99051.88;5093857;28;19973;-77
2020/12/21 11:57:34;;;;;;;;;;;;;;;6.79;62.21;99034.81;5093722;28;19924;-76
2020/12/21 12:00:01;;;;;;;;;;;;;;;6.83;62.00;99020.94;5093809;28;19942;-78
2020/12/21 12:02:27;;;;;;;;;;;;;;;6.95;61.69;99009.41;5093308;28;19932;-76
2020/12/21 12:04:54;;;;;;;;;;;;;;;7.01;61.63;99000.22;5094062;28;19928;-77
2020/12/21 12:07:20;;;;;;;;;;;;;;;7.10;61.28;98980.38;5093757;28;19931;-77
2020/12/21 12:09:47;;;;;;;;;;;;;;;7.21;60.87;98981.09;5075638;28;20408;-78
2020/12/21 12:12:13;;;;;;;;;;;;;;;7.22;60.95;98952.16;5075725;28;20359;-77
2020/12/21 12:14:40;;;;;;;;;;;;;;;7.26;60.68;98945.38;5075710;28;19928;-77
2020/12/21 12:17:06;;;;;;;;;;;;;;;7.33;60.45;98945.31;5093842;28;20497;-77
2020/12/21 12:19:33;;;;;;;;;;;;;;;7.40;60.25;98919.50;5093792;28;19924;-76
2020/12/21 12:22:00;;;;;;;;;;;;;;;7.40;60.25;98913.94;5093503;28;19974;-76
2020/12/21 12:24:26;;;;;;;;;;;;;;;7.48;60.08;98903.56;5093237;28;20536;-76
2020/12/21 12:26:53;;;;;;;;;;;;;;;7.51;59.94;98892.44;5093669;28;19924;-76
2020/12/21 12:29:20;;;;;;;;;;;;;;;7.53;59.83;98878.88;5093597;28;19928;-76
2020/12/21 12:31:47;;;;;;;;;;;;;;;7.59;59.70;98860.56;5075487;28;20443;-76
2020/12/21 12:34:14;;;;;;;;;;;;;;;7.71;59.39;98857.31;5093436;28;19928;-76
2020/12/21 12:36:43;;;;;;;;;;;;;;;7.86;58.99;98839.28;5093603;28;20422;-76
2020/12/21 12:39:10;;;;;;;;;;;;;;;7.77;59.15;98825.06;5093237;28;19928;-77
2020/12/21 12:41:38;;;;;;;;;;;;;;;7.75;59.23;98805.25;5093588;28;20359;-76
2020/12/21 12:44:05;;;;;;;;;;;;;;;7.80;59.14;98790.88;5097174;28;20268;-76
2020/12/21 12:46:32;;;;;;;;;;;;;;;7.84;59.17;98774.97;5097307;28;19946;-76
2020/12/21 12:49:03;;;;;;;;;;;;;;;7.89;59.17;98771.72;5078618;28;20007;-76